Oentsjerk, Netherlands
Current Conditions -  °F | °C
As of 7:32 PM on Thursday 23 Oct 2014 (Local Time) from EHLW Reporting Station
Overcast Overcast  
Wind Chill: 55°   Ceiling: 3200
Heat Index: 55°   Visibility: 6mi
Dew Point: 50°   Wind: 10mph
Humidity: 82%   Direction: 200°SSW
Pressure: 30.09"   Gusts: NA
Location:  53.25°N, 5.9°E
Report Text: EHLW 231732Z AUTO 20009KT 9999 FEW019 BKN032 OVC036 13/10 Q1019 BLU
Loading
Personal Weather Stations






























Interactive Weather Map
Tropical Storm Tracking
New forecast layout! Learn more

10-Day Weather Forecast

Advertisements
Track Severe Weather on mobile